Time;durP1;ratioP1;P1;durP2;ratioP2;P2;SDS_P1;SDS_P2;PMS_P1;PMS_P2;Temp;Humidity;BMP_temperature;BMP_pressure;BME280_temperature;BME280_humidity;BME280_pressure;Samples;Min_cycle;Max_cycle;Signal;HPM_P1;HPM_P2
2022/07/20 00:01:17;;;;;;;14.20;4.22;;;;;;;;;;5072435;28;20032;-72
2022/07/20 00:03:45;;;;;;;11.85;3.70;;;;;;;;;;5071461;28;20398;-73
2022/07/20 00:06:12;;;;;;;18.98;3.70;;;;;;;;;;5072600;28;20032;-75
2022/07/20 00:11:23;;;;;;;11.73;3.38;;;;;;;;;;5072263;28;20547;-73
2022/07/20 00:13:52;;;;;;;11.05;3.70;;;;;;;;;;5072408;28;20027;-71
2022/07/20 00:16:19;;;;;;;16.35;4.00;;;;;;;;;;5072506;28;20135;-71
2022/07/20 00:18:46;;;;;;;13.25;3.72;;;;;;;;;;5072272;28;20059;-71
2022/07/20 00:21:12;;;;;;;11.00;4.07;;;;;;;;;;5071895;28;20079;-72
2022/07/20 00:23:38;;;;;;;16.60;3.75;;;;;;;;;;5072367;28;20124;-71
2022/07/20 00:26:04;;;;;;;13.25;3.60;;;;;;;;;;5072362;28;20094;-71
2022/07/20 00:28:30;;;;;;;13.48;4.05;;;;;;;;;;5072070;28;20407;-71
2022/07/20 00:30:57;;;;;;;12.60;3.47;;;;;;;;;;5072315;28;20024;-71
2022/07/20 00:33:23;;;;;;;12.25;4.03;;;;;;;;;;5071921;28;20075;-71
2022/07/20 00:35:49;;;;;;;11.57;3.47;;;;;;;;;;5072069;28;20028;-71
2022/07/20 00:38:15;;;;;;;12.82;3.20;;;;;;;;;;5072190;28;20039;-71
2022/07/20 00:40:41;;;;;;;12.27;3.63;;;;;;;;;;5072155;28;20120;-71
2022/07/20 00:43:08;;;;;;;14.55;3.63;;;;;;;;;;5072171;28;20040;-72
2022/07/20 00:45:34;;;;;;;14.05;3.78;;;;;;;;;;5072180;28;20056;-72
2022/07/20 00:48:00;;;;;;;15.18;3.60;;;;;;;;;;5072237;28;20052;-73
2022/07/20 00:50:26;;;;;;;8.45;3.28;;;;;;;;;;5071589;28;20021;-73
2022/07/20 00:52:53;;;;;;;15.18;3.83;;;;;;;;;;5072116;28;20029;-72
2022/07/20 00:55:19;;;;;;;7.88;3.22;;;;;;;;;;5071939;28;20037;-73
2022/07/20 00:57:45;;;;;;;13.35;3.50;;;;;;;;;;5072074;28;20030;-73
2022/07/20 01:00:12;;;;;;;15.75;3.95;;;;;;;;;;5072071;28;20031;-73
2022/07/20 01:02:39;;;;;;;17.67;3.95;;;;;;;;;;5071967;28;20063;-72
2022/07/20 01:05:13;;;;;;;12.20;3.22;;;;;;;;;;5087128;28;20059;-72
2022/07/20 01:07:39;;;;;;;12.45;3.20;;;;;;;;;;5072391;28;20032;-72
2022/07/20 01:10:06;;;;;;;17.58;3.80;;;;;;;;;;5075429;28;20033;-73
2022/07/20 01:12:32;;;;;;;17.13;4.63;;;;;;;;;;5075664;28;20024;-72
2022/07/20 01:14:58;;;;;;;12.80;3.80;;;;;;;;;;5075882;28;20056;-73
2022/07/20 01:17:24;;;;;;;15.93;3.97;;;;;;;;;;5075578;28;20036;-72
2022/07/20 01:19:50;;;;;;;13.93;4.63;;;;;;;;;;5075176;28;20103;-73
2022/07/20 01:22:16;;;;;;;17.33;4.50;;;;;;;;;;5075650;28;20032;-73
2022/07/20 01:24:42;;;;;;;10.68;3.63;;;;;;;;;;5075537;28;20032;-72
2022/07/20 01:27:08;;;;;;;13.02;4.00;;;;;;;;;;5075227;28;20032;-73
2022/07/20 01:29:35;;;;;;;13.50;3.70;;;;;;;;;;5075477;28;20509;-72
2022/07/20 01:32:01;;;;;;;14.68;5.30;;;;;;;;;;5075261;28;20520;-72
2022/07/20 01:34:27;;;;;;;12.30;4.07;;;;;;;;;;5074869;28;20021;-72
2022/07/20 01:36:53;;;;;;;8.60;3.28;;;;;;;;;;5075441;28;20074;-74
2022/07/20 01:39:19;;;;;;;11.52;3.45;;;;;;;;;;5090919;28;20036;-73
2022/07/20 01:41:52;;;;;;;9.25;3.53;;;;;;;;;;5075207;28;20024;-73
2022/07/20 01:44:21;;;;;;;6.80;3.45;;;;;;;;;;5075242;28;20051;-72
2022/07/20 01:46:48;;;;;;;10.05;3.53;;;;;;;;;;5075188;28;20041;-72
2022/07/20 01:49:15;;;;;;;7.82;3.65;;;;;;;;;;5074808;28;20032;-72
2022/07/20 01:51:41;;;;;;;14.98;3.75;;;;;;;;;;5074777;28;20036;-72
2022/07/20 01:54:07;;;;;;;10.80;3.55;;;;;;;;;;5075042;28;20490;-72
2022/07/20 01:56:33;;;;;;;11.43;3.30;;;;;;;;;;5074741;28;20021;-75
2022/07/20 01:58:59;;;;;;;11.27;3.78;;;;;;;;;;5074708;28;20025;-72
2022/07/20 02:01:26;;;;;;;11.05;3.88;;;;;;;;;;5074828;28;20028;-73
2022/07/20 02:03:52;;;;;;;13.82;4.38;;;;;;;;;;5074561;28;20029;-72
2022/07/20 02:06:18;;;;;;;8.65;4.18;;;;;;;;;;5074738;28;20094;-72
2022/07/20 02:08:44;;;;;;;8.82;3.40;;;;;;;;;;5074513;28;20078;-72
2022/07/20 02:11:10;;;;;;;10.27;4.13;;;;;;;;;;5074711;28;20536;-72
2022/07/20 02:13:37;;;;;;;8.38;3.30;;;;;;;;;;5074628;28;20021;-72
2022/07/20 02:16:16;;;;;;;12.27;3.80;;;;;;;;;;5074687;28;20107;-72
2022/07/20 02:18:43;;;;;;;13.38;3.63;;;;;;;;;;5074171;28;20017;-72
2022/07/20 02:21:09;;;;;;;16.83;3.92;;;;;;;;;;5073445;28;20117;-72
2022/07/20 02:23:35;;;;;;;11.68;4.15;;;;;;;;;;5074445;28;20040;-72
2022/07/20 02:26:01;;;;;;;8.52;3.53;;;;;;;;;;5074396;28;20163;-72
2022/07/20 02:28:27;;;;;;;15.32;4.45;;;;;;;;;;5074181;28;20052;-72
2022/07/20 02:30:53;;;;;;;8.23;3.90;;;;;;;;;;5074435;28;20032;-72
2022/07/20 02:33:19;;;;;;;15.82;4.10;;;;;;;;;;5073787;28;20025;-72
2022/07/20 02:35:46;;;;;;;11.93;4.22;;;;;;;;;;5074155;28;20005;-72
2022/07/20 02:38:12;;;;;;;11.77;4.18;;;;;;;;;;5074292;28;20025;-72
2022/07/20 02:40:38;;;;;;;8.00;3.63;;;;;;;;;;5073952;28;20031;-72
2022/07/20 02:43:05;;;;;;;8.85;3.63;;;;;;;;;;5074093;28;20017;-72
2022/07/20 02:45:31;;;;;;;12.65;3.70;;;;;;;;;;5073896;28;20032;-72
2022/07/20 02:48:02;;;;;;;9.05;3.75;;;;;;;;;;5073668;28;20043;-72
2022/07/20 02:50:37;;;;;;;7.63;4.07;;;;;;;;;;5073744;28;20028;-72
2022/07/20 02:53:04;;;;;;;13.68;3.67;;;;;;;;;;5073879;28;20025;-72
2022/07/20 02:55:30;;;;;;;7.60;3.63;;;;;;;;;;5073708;28;20035;-72
2022/07/20 02:57:56;;;;;;;10.50;4.07;;;;;;;;;;5073783;28;20413;-72
2022/07/20 03:00:22;;;;;;;8.13;3.80;;;;;;;;;;5073530;28;20118;-72
2022/07/20 03:02:49;;;;;;;11.55;3.42;;;;;;;;;;5073553;28;20035;-72
2022/07/20 03:05:15;;;;;;;10.55;3.97;;;;;;;;;;5073551;28;20033;-72
2022/07/20 03:07:41;;;;;;;11.50;4.97;;;;;;;;;;5073528;28;20024;-71
2022/07/20 03:10:08;;;;;;;14.93;3.47;;;;;;;;;;5073610;28;20032;-71
2022/07/20 03:12:34;;;;;;;10.77;3.97;;;;;;;;;;5073239;28;20032;-72
2022/07/20 03:15:01;;;;;;;12.35;3.70;;;;;;;;;;5073521;28;20025;-71
2022/07/20 03:17:27;;;;;;;13.45;3.83;;;;;;;;;;5073027;28;20021;-73
2022/07/20 03:19:53;;;;;;;10.02;3.58;;;;;;;;;;5072301;28;20027;-73
2022/07/20 03:22:19;;;;;;;10.57;4.57;;;;;;;;;;5073393;28;20120;-73
2022/07/20 03:24:45;;;;;;;14.82;4.00;;;;;;;;;;5073093;28;20021;-73
2022/07/20 03:27:11;;;;;;;11.63;4.18;;;;;;;;;;5072850;28;20056;-73
2022/07/20 03:29:38;;;;;;;9.25;3.70;;;;;;;;;;5072892;28;20075;-74
2022/07/20 03:32:04;;;;;;;8.38;3.88;;;;;;;;;;5072814;28;20082;-73
2022/07/20 03:34:31;;;;;;;11.57;3.75;;;;;;;;;;5072982;28;20030;-74
2022/07/20 03:36:57;;;;;;;9.43;3.45;;;;;;;;;;5073080;28;20140;-73
2022/07/20 03:39:23;;;;;;;7.00;3.80;;;;;;;;;;5053447;28;20112;-73
2022/07/20 03:41:49;;;;;;;6.65;3.63;;;;;;;;;;5053358;28;20025;-74
2022/07/20 03:44:15;;;;;;;12.23;4.13;;;;;;;;;;5052098;28;20067;-74
2022/07/20 03:46:42;;;;;;;8.75;3.95;;;;;;;;;;5053230;28;20029;-74
2022/07/20 03:49:08;;;;;;;9.52;3.80;;;;;;;;;;5053150;28;20029;-74
2022/07/20 03:51:37;;;;;;;11.40;3.80;;;;;;;;;;5071397;28;20173;-73
2022/07/20 03:54:04;;;;;;;6.95;3.47;;;;;;;;;;5072777;28;20419;-74
2022/07/20 03:56:30;;;;;;;9.80;3.83;;;;;;;;;;5073138;28;20032;-73
2022/07/20 03:58:56;;;;;;;12.07;4.20;;;;;;;;;;5071650;28;20374;-74
2022/07/20 04:01:22;;;;;;;12.82;3.72;;;;;;;;;;5073161;28;20025;-74
2022/07/20 04:03:48;;;;;;;9.90;3.60;;;;;;;;;;5073156;28;20238;-70
2022/07/20 04:06:14;;;;;;;13.05;4.10;;;;;;;;;;5073165;28;20111;-68
2022/07/20 04:08:40;;;;;;;9.88;4.95;;;;;;;;;;5072598;28;20037;-67
2022/07/20 04:11:07;;;;;;;7.70;3.85;;;;;;;;;;5073143;28;20458;-66
2022/07/20 04:13:33;;;;;;;11.48;3.75;;;;;;;;;;5072093;28;20070;-66
2022/07/20 04:15:59;;;;;;;14.80;5.45;;;;;;;;;;5072513;28;20435;-66
2022/07/20 04:18:25;;;;;;;8.88;3.90;;;;;;;;;;5072331;28;20024;-66
2022/07/20 04:20:51;;;;;;;12.18;4.78;;;;;;;;;;5072303;28;20029;-66
2022/07/20 04:23:17;;;;;;;10.15;4.43;;;;;;;;;;5072434;28;20052;-66
2022/07/20 04:25:43;;;;;;;11.02;4.78;;;;;;;;;;5072139;28;20091;-67
2022/07/20 04:28:09;;;;;;;11.40;3.60;;;;;;;;;;5071886;28;20037;-66
2022/07/20 04:30:35;;;;;;;13.85;4.80;;;;;;;;;;5072057;28;20025;-66
2022/07/20 04:33:02;;;;;;;10.10;4.18;;;;;;;;;;5072323;28;20024;-66
2022/07/20 04:35:28;;;;;;;11.10;4.68;;;;;;;;;;5072354;28;20025;-66
2022/07/20 04:37:54;;;;;;;9.00;4.30;;;;;;;;;;5072153;28;20025;-66
2022/07/20 04:40:20;;;;;;;11.32;3.97;;;;;;;;;;5071078;28;20126;-66
2022/07/20 04:42:46;;;;;;;9.25;4.93;;;;;;;;;;5071774;28;20049;-66
2022/07/20 04:45:13;;;;;;;12.23;4.75;;;;;;;;;;5076054;28;20043;-66
2022/07/20 04:47:39;;;;;;;11.38;3.58;;;;;;;;;;5076282;28;20106;-66
2022/07/20 04:50:05;;;;;;;13.05;4.10;;;;;;;;;;5076213;28;20064;-66
2022/07/20 04:52:31;;;;;;;9.07;3.88;;;;;;;;;;5076083;28;20040;-66
2022/07/20 04:54:57;;;;;;;9.43;4.28;;;;;;;;;;5076164;28;20382;-66
2022/07/20 04:57:24;;;;;;;12.20;4.70;;;;;;;;;;5075953;28;20036;-66
2022/07/20 04:59:50;;;;;;;9.13;4.20;;;;;;;;;;5076059;28;20017;-66
2022/07/20 05:02:16;;;;;;;13.55;4.68;;;;;;;;;;5076220;28;20107;-66
2022/07/20 05:04:42;;;;;;;7.93;4.22;;;;;;;;;;5075724;28;20124;-66
2022/07/20 05:07:08;;;;;;;11.90;4.82;;;;;;;;;;5075874;28;20081;-67
2022/07/20 05:09:35;;;;;;;12.77;4.80;;;;;;;;;;5075880;28;20102;-66
2022/07/20 05:12:01;;;;;;;12.15;4.22;;;;;;;;;;5075332;28;20063;-66
2022/07/20 05:14:27;;;;;;;11.65;4.10;;;;;;;;;;5076062;28;20032;-66
2022/07/20 05:16:53;;;;;;;12.30;4.07;;;;;;;;;;5074592;28;20394;-66
2022/07/20 05:19:19;;;;;;;12.07;4.68;;;;;;;;;;5075139;28;20037;-66
2022/07/20 05:21:45;;;;;;;10.35;4.88;;;;;;;;;;5075600;28;20036;-66
2022/07/20 05:24:11;;;;;;;15.15;5.45;;;;;;;;;;5075734;28;20105;-67
2022/07/20 05:26:38;;;;;;;13.50;5.93;;;;;;;;;;5075342;28;20072;-67
2022/07/20 05:29:04;;;;;;;12.50;6.53;;;;;;;;;;5075289;28;20036;-67
2022/07/20 05:31:30;;;;;;;16.65;9.25;;;;;;;;;;5074071;28;20085;-67
2022/07/20 05:33:56;;;;;;;29.55;11.10;;;;;;;;;;5075379;28;20085;-67
2022/07/20 05:36:22;;;;;;;25.20;10.93;;;;;;;;;;5074084;28;20513;-67
2022/07/20 05:38:49;;;;;;;24.55;8.98;;;;;;;;;;5075241;28;20016;-66
2022/07/20 05:41:15;;;;;;;16.85;8.68;;;;;;;;;;5074940;28;20034;-67
2022/07/20 05:43:41;;;;;;;20.80;9.40;;;;;;;;;;5075171;28;20041;-67
2022/07/20 05:46:07;;;;;;;19.27;8.57;;;;;;;;;;5075093;28;20114;-67
2022/07/20 05:48:34;;;;;;;21.52;9.13;;;;;;;;;;5075005;28;20401;-67
2022/07/20 05:51:00;;;;;;;27.35;9.32;;;;;;;;;;5075071;28;20375;-67
2022/07/20 05:53:26;;;;;;;14.75;7.97;;;;;;;;;;5075078;28;20086;-67
2022/07/20 05:55:52;;;;;;;18.40;9.27;;;;;;;;;;5073220;28;20070;-67
2022/07/20 05:58:18;;;;;;;20.67;9.88;;;;;;;;;;5075103;28;20012;-66
2022/07/20 06:00:44;;;;;;;21.90;9.43;;;;;;;;;;5074808;28;20425;-66
2022/07/20 06:03:10;;;;;;;18.38;9.52;;;;;;;;;;5074790;28;20021;-66
2022/07/20 06:05:36;;;;;;;24.10;10.55;;;;;;;;;;5074885;28;20374;-66
2022/07/20 06:08:04;;;;;;;20.05;10.05;;;;;;;;;;5074698;28;20025;-67
2022/07/20 06:10:31;;;;;;;25.15;11.10;;;;;;;;;;5074213;28;20050;-67
2022/07/20 06:12:58;;;;;;;18.00;9.77;;;;;;;;;;5074641;28;20020;-67
2022/07/20 06:15:27;;;;;;;20.25;10.48;;;;;;;;;;5074712;28;20025;-67
2022/07/20 06:17:54;;;;;;;24.05;11.23;;;;;;;;;;5074331;28;20060;-67
2022/07/20 06:20:21;;;;;;;18.98;10.25;;;;;;;;;;5074688;28;20108;-67
2022/07/20 06:22:47;;;;;;;23.70;10.05;;;;;;;;;;5074261;28;20055;-67
2022/07/20 06:25:14;;;;;;;20.50;8.40;;;;;;;;;;5074152;28;20021;-66
2022/07/20 06:27:40;;;;;;;16.10;9.27;;;;;;;;;;5074217;28;20049;-66
2022/07/20 06:30:07;;;;;;;20.52;9.63;;;;;;;;;;5074487;28;20410;-67
2022/07/20 06:32:33;;;;;;;20.23;9.45;;;;;;;;;;5074149;28;20032;-66
2022/07/20 06:34:59;;;;;;;25.00;9.73;;;;;;;;;;5074150;28;20031;-66
2022/07/20 06:37:26;;;;;;;17.15;8.80;;;;;;;;;;5074274;28;20095;-66
2022/07/20 06:39:52;;;;;;;19.77;9.52;;;;;;;;;;5073746;28;20397;-66
2022/07/20 06:42:20;;;;;;;17.63;8.70;;;;;;;;;;5074376;28;20383;-67
2022/07/20 06:44:46;;;;;;;19.90;8.50;;;;;;;;;;5074038;28;20074;-67
2022/07/20 06:47:12;;;;;;;18.48;9.05;;;;;;;;;;5073897;28;20535;-67
2022/07/20 06:49:38;;;;;;;18.45;8.48;;;;;;;;;;5073930;28;20107;-67
2022/07/20 06:52:05;;;;;;;16.83;8.77;;;;;;;;;;5073968;28;20028;-67
2022/07/20 06:54:31;;;;;;;19.30;8.38;;;;;;;;;;5073654;28;20389;-67
2022/07/20 06:56:57;;;;;;;21.00;7.85;;;;;;;;;;5073707;28;20330;-67
2022/07/20 06:59:23;;;;;;;17.42;7.90;;;;;;;;;;5073837;28;20443;-67
2022/07/20 07:01:49;;;;;;;22.15;8.40;;;;;;;;;;5072496;28;20075;-67
2022/07/20 07:04:16;;;;;;;18.55;8.20;;;;;;;;;;5073678;28;20036;-67
2022/07/20 07:06:42;;;;;;;15.77;6.93;;;;;;;;;;5073152;28;20031;-67
2022/07/20 07:09:09;;;;;;;15.93;7.40;;;;;;;;;;5073244;28;20074;-67
2022/07/20 07:11:35;;;;;;;23.13;8.35;;;;;;;;;;5073506;28;20531;-67
2022/07/20 07:14:01;;;;;;;15.93;7.13;;;;;;;;;;5072033;28;20025;-67
2022/07/20 07:16:27;;;;;;;15.40;6.82;;;;;;;;;;5073437;28;20371;-66
2022/07/20 07:18:53;;;;;;;15.40;7.40;;;;;;;;;;5073148;28;20566;-67
2022/07/20 07:21:19;;;;;;;19.92;7.20;;;;;;;;;;5073393;28;20032;-67
2022/07/20 07:23:49;;;;;;;17.73;6.95;;;;;;;;;;5072793;28;20486;-67
2022/07/20 07:26:16;;;;;;;15.32;6.72;;;;;;;;;;5073282;28;20076;-67
2022/07/20 07:28:43;;;;;;;10.43;5.65;;;;;;;;;;5072889;28;20127;-67
2022/07/20 07:31:09;;;;;;;11.45;6.18;;;;;;;;;;5073320;28;20100;-66
2022/07/20 07:33:35;;;;;;;12.73;5.60;;;;;;;;;;5073230;28;20020;-67
2022/07/20 07:36:01;;;;;;;13.05;6.60;;;;;;;;;;5072707;28;20099;-67
2022/07/20 07:38:27;;;;;;;15.30;5.85;;;;;;;;;;5072718;28;20115;-67
2022/07/20 07:40:53;;;;;;;15.60;5.93;;;;;;;;;;5073031;28;20118;-67
2022/07/20 07:43:19;;;;;;;11.38;6.18;;;;;;;;;;5073043;28;20509;-67
2022/07/20 07:45:46;;;;;;;15.68;6.78;;;;;;;;;;5072720;28;20033;-66
2022/07/20 07:48:12;;;;;;;26.45;7.32;;;;;;;;;;5072631;28;20054;-66
2022/07/20 07:50:38;;;;;;;16.73;6.55;;;;;;;;;;5072532;28;20028;-67
2022/07/20 07:53:07;;;;;;;14.13;6.28;;;;;;;;;;5072564;28;20035;-67
2022/07/20 07:55:34;;;;;;;14.75;7.00;;;;;;;;;;5072807;28;20027;-67
2022/07/20 07:58:00;;;;;;;19.40;6.65;;;;;;;;;;5072579;28;20069;-67
2022/07/20 08:00:26;;;;;;;16.55;7.53;;;;;;;;;;5072616;28;20105;-67
2022/07/20 08:02:53;;;;;;;18.17;6.90;;;;;;;;;;5072449;28;20442;-67
2022/07/20 08:05:19;;;;;;;16.70;6.85;;;;;;;;;;5072276;28;20417;-67
2022/07/20 08:07:45;;;;;;;12.38;6.22;;;;;;;;;;5072562;28;20024;-67
2022/07/20 08:10:12;;;;;;;18.17;7.43;;;;;;;;;;5072418;28;20028;-67
2022/07/20 08:12:38;;;;;;;14.73;6.25;;;;;;;;;;5072639;28;20036;-67
2022/07/20 08:15:05;;;;;;;15.98;5.78;;;;;;;;;;5071270;28;20032;-67
2022/07/20 08:17:32;;;;;;;15.20;6.03;;;;;;;;;;5072302;28;20090;-67
2022/07/20 08:19:58;;;;;;;14.45;5.65;;;;;;;;;;5071265;28;20079;-67
2022/07/20 08:22:24;;;;;;;13.00;5.03;;;;;;;;;;5072279;28;20024;-67
2022/07/20 08:24:50;;;;;;;12.73;4.95;;;;;;;;;;5072420;28;20036;-67
2022/07/20 08:27:16;;;;;;;12.60;5.35;;;;;;;;;;5072172;28;20048;-67
2022/07/20 08:29:42;;;;;;;11.77;5.55;;;;;;;;;;5072205;28;20032;-67
2022/07/20 08:32:08;;;;;;;14.45;5.82;;;;;;;;;;5072433;28;20089;-67
2022/07/20 08:34:35;;;;;;;15.18;6.03;;;;;;;;;;5072046;28;20491;-66
2022/07/20 08:37:02;;;;;;;9.35;5.68;;;;;;;;;;5072069;28;20025;-67
2022/07/20 08:39:28;;;;;;;10.15;4.60;;;;;;;;;;5072376;28;20103;-67
2022/07/20 08:41:54;;;;;;;15.40;6.70;;;;;;;;;;5072015;28;20024;-67
2022/07/20 08:44:20;;;;;;;16.35;6.65;;;;;;;;;;5072252;28;20029;-67
2022/07/20 08:46:46;;;;;;;12.57;5.72;;;;;;;;;;5072101;28;20129;-67
2022/07/20 08:49:13;;;;;;;11.27;5.05;;;;;;;;;;5071944;28;20417;-67
2022/07/20 08:51:39;;;;;;;13.15;5.78;;;;;;;;;;5072123;28;20230;-67
2022/07/20 08:54:06;;;;;;;13.75;5.55;;;;;;;;;;5070801;28;20033;-67
2022/07/20 08:56:32;;;;;;;10.68;5.82;;;;;;;;;;5071933;28;20378;-67
2022/07/20 08:58:58;;;;;;;14.57;6.13;;;;;;;;;;5072088;28;20052;-67
2022/07/20 09:01:24;;;;;;;13.65;5.82;;;;;;;;;;5072104;28;20048;-67
2022/07/20 09:04:10;;;;;;;10.60;5.60;;;;;;;;;;5071743;28;20098;-67
2022/07/20 09:06:45;;;;;;;11.60;6.00;;;;;;;;;;5070614;28;20032;-67
2022/07/20 09:09:11;;;;;;;11.98;5.75;;;;;;;;;;5071735;28;20029;-67
2022/07/20 09:11:37;;;;;;;12.43;6.30;;;;;;;;;;5071966;28;20158;-67
2022/07/20 09:14:03;;;;;;;10.48;6.40;;;;;;;;;;5071856;28;20036;-67
2022/07/20 09:16:36;;;;;;;14.93;6.03;;;;;;;;;;5071825;28;20548;-67
2022/07/20 09:19:02;;;;;;;;;;;;;;;;;;5071824;28;20041;-67
2022/07/20 09:21:32;;;;;;;11.77;6.10;;;;;;;;;;5071870;28;19910;-67
2022/07/20 09:24:02;;;;;;;13.80;5.55;;;;;;;;;;5071686;28;20440;-67
2022/07/20 09:26:28;;;;;;;12.45;6.28;;;;;;;;;;5071898;28;20375;-67
2022/07/20 09:28:56;;;;;;;14.82;6.40;;;;;;;;;;5071606;28;20052;-67
2022/07/20 09:31:35;;;;;;;11.05;5.80;;;;;;;;;;5075368;28;20032;-67
2022/07/20 09:34:03;;;;;;;13.38;5.68;;;;;;;;;;5074966;28;20497;-66
2022/07/20 09:36:34;;;;;;;11.52;5.07;;;;;;;;;;5075383;28;20416;-67
2022/07/20 09:39:07;;;;;;;9.43;5.57;;;;;;;;;;5075374;28;20115;-67
2022/07/20 09:41:36;;;;;;;10.30;5.47;;;;;;;;;;5075409;28;20110;-67
2022/07/20 09:44:05;;;;;;;9.65;5.88;;;;;;;;;;5075122;28;20111;-67
2022/07/20 09:46:38;;;;;;;10.13;5.78;;;;;;;;;;5075403;28;20512;-67
2022/07/20 09:49:08;;;;;;;8.02;5.32;;;;;;;;;;5075013;28;20028;-67
2022/07/20 09:51:38;;;;;;;7.30;4.88;;;;;;;;;;5075140;28;20040;-67
2022/07/20 09:54:08;;;;;;;7.75;5.68;;;;;;;;;;5074822;28;20078;-67
2022/07/20 09:56:35;;;;;;;9.30;5.72;;;;;;;;;;5075063;28;20033;-67
2022/07/20 09:59:04;;;;;;;9.57;5.35;;;;;;;;;;5074857;28;20513;-67
2022/07/20 10:01:31;;;;;;;6.82;4.70;;;;;;;;;;5074654;28;20029;-67
2022/07/20 10:03:59;;;;;;;11.85;5.47;;;;;;;;;;5074646;28;20029;-67
2022/07/20 10:06:25;;;;;;;7.95;5.03;;;;;;;;;;5074770;28;20051;-67
2022/07/20 10:08:53;;;;;;;11.00;5.03;;;;;;;;;;5074760;28;20043;-67
2022/07/20 10:11:20;;;;;;;12.50;4.95;;;;;;;;;;5074524;28;20037;-67
2022/07/20 10:13:50;;;;;;;9.45;5.28;;;;;;;;;;5074860;28;20016;-67
2022/07/20 10:16:25;;;;;;;8.63;5.10;;;;;;;;;;5074180;28;20074;-67
2022/07/20 10:18:52;;;;;;;10.65;4.93;;;;;;;;;;5074480;28;20028;-67
2022/07/20 10:21:36;;;;;;;10.25;5.05;;;;;;;;;;5074520;28;20478;-67
2022/07/20 10:24:18;;;;;;;7.90;5.28;;;;;;;;;;5074425;28;20032;-67
2022/07/20 10:26:45;;;;;;;15.35;5.57;;;;;;;;;;5074507;28;20032;-67
2022/07/20 10:29:23;;;;;;;8.35;4.80;;;;;;;;;;5074081;28;20049;-68
2022/07/20 10:31:50;;;;;;;9.80;5.28;;;;;;;;;;5073888;28;20063;-67
2022/07/20 10:34:33;;;;;;;10.18;5.30;;;;;;;;;;5074433;28;20052;-67
2022/07/20 10:37:18;;;;;;;10.35;5.18;;;;;;;;;;5074276;28;20055;-67
2022/07/20 10:39:48;;;;;;;10.77;5.15;;;;;;;;;;5074267;28;20082;-67
2022/07/20 10:42:21;;;;;;;7.72;5.18;;;;;;;;;;5073221;28;20082;-67
2022/07/20 10:44:47;;;;;;;10.40;5.00;;;;;;;;;;5073904;28;20032;-67
2022/07/20 10:47:32;;;;;;;8.82;5.05;;;;;;;;;;5073916;28;20032;-67
2022/07/20 10:50:04;;;;;;;9.15;5.03;;;;;;;;;;5073958;28;20029;-67
2022/07/20 10:52:34;;;;;;;12.02;4.82;;;;;;;;;;5073985;28;20063;-67
2022/07/20 10:55:01;;;;;;;11.75;4.30;;;;;;;;;;5073879;28;20016;-67
2022/07/20 10:57:27;;;;;;;13.82;4.43;;;;;;;;;;5073967;28;20075;-67
2022/07/20 11:00:05;;;;;;;8.25;4.00;;;;;;;;;;5073383;28;20432;-67
2022/07/20 11:02:32;;;;;;;6.40;3.95;;;;;;;;;;5073651;28;20035;-67
2022/07/20 11:04:59;;;;;;;8.10;3.92;;;;;;;;;;5073664;28;20047;-67
2022/07/20 11:07:35;;;;;;;7.90;4.63;;;;;;;;;;5073640;28;20036;-67
2022/07/20 11:10:18;;;;;;;10.05;4.38;;;;;;;;;;5073421;28;20036;-67
2022/07/20 11:12:53;;;;;;;7.25;4.43;;;;;;;;;;5073326;28;20078;-67
2022/07/20 11:15:19;;;;;;;15.98;4.88;;;;;;;;;;5073178;28;20031;-67
2022/07/20 11:17:45;;;;;;;9.70;3.90;;;;;;;;;;5073277;28;20031;-67
2022/07/20 11:20:16;;;;;;;9.95;4.18;;;;;;;;;;5073238;28;20117;-67
2022/07/20 11:22:42;;;;;;;11.93;5.03;;;;;;;;;;5072006;28;20044;-67
2022/07/20 11:25:08;;;;;;;7.28;4.15;;;;;;;;;;5073125;28;20036;-67
2022/07/20 11:27:34;;;;;;;8.18;4.03;;;;;;;;;;5073283;28;20145;-67
2022/07/20 11:30:00;;;;;;;10.18;4.25;;;;;;;;;;5072819;28;20560;-67
2022/07/20 11:32:28;;;;;;;12.25;4.32;;;;;;;;;;5071565;28;20123;-67
2022/07/20 11:34:54;;;;;;;10.50;5.60;;;;;;;;;;5073270;28;20027;-67
2022/07/20 11:37:21;;;;;;;9.95;6.13;;;;;;;;;;5073012;28;20032;-67
2022/07/20 11:39:48;;;;;;;19.02;6.25;;;;;;;;;;5072997;28;20025;-67
2022/07/20 11:42:15;;;;;;;28.98;8.70;;;;;;;;;;5072763;28;20028;-67
2022/07/20 11:44:41;;;;;;;24.65;9.00;;;;;;;;;;5072665;28;20040;-67
2022/07/20 11:47:08;;;;;;;25.50;8.25;;;;;;;;;;5072778;28;20029;-67
2022/07/20 11:49:34;;;;;;;28.33;9.70;;;;;;;;;;5072937;28;20504;-67
2022/07/20 11:52:05;;;;;;;31.52;10.40;;;;;;;;;;5072483;28;20029;-66
2022/07/20 11:54:33;;;;;;;27.27;9.80;;;;;;;;;;5072838;28;20074;-66
2022/07/20 11:56:59;;;;;;;25.95;9.85;;;;;;;;;;5072686;28;20025;-66
2022/07/20 11:59:26;;;;;;;38.63;9.98;;;;;;;;;;5072337;28;20389;-66
2022/07/20 12:01:53;;;;;;;35.10;9.48;;;;;;;;;;5072709;28;20119;-66
2022/07/20 12:04:20;;;;;;;28.58;8.88;;;;;;;;;;5072560;28;20023;-66
2022/07/20 12:06:46;;;;;;;30.92;9.25;;;;;;;;;;5072450;28;20037;-66
2022/07/20 12:09:17;;;;;;;39.03;9.55;;;;;;;;;;5072363;28;20510;-66
2022/07/20 12:12:00;;;;;;;27.25;8.70;;;;;;;;;;5072278;28;20036;-66
2022/07/20 12:14:26;;;;;;;;;;;;;;;;;;5072897;28;20034;-66
2022/07/20 12:16:53;;;;;;;34.45;9.73;;;;;;;;;;5072491;28;19908;-66
2022/07/20 12:19:19;;;;;;;28.13;8.02;;;;;;;;;;5072165;28;20033;-66
2022/07/20 12:21:46;;;;;;;30.98;8.48;;;;;;;;;;5072411;28;20024;-66
2022/07/20 12:24:12;;;;;;;32.03;8.23;;;;;;;;;;5072309;28;20044;-66
2022/07/20 12:26:39;;;;;;;29.10;9.38;;;;;;;;;;5071999;28;20033;-66
2022/07/20 12:29:26;;;;;;;27.70;8.43;;;;;;;;;;5072065;28;20056;-66
2022/07/20 12:31:59;;;;;;;30.77;8.55;;;;;;;;;;5072210;28;20466;-66
2022/07/20 12:34:26;;;;;;;26.40;8.95;;;;;;;;;;5072308;28;20025;-67
2022/07/20 12:36:52;;;;;;;30.25;8.20;;;;;;;;;;5072319;28;20048;-67
2022/07/20 12:39:37;;;;;;;25.58;7.13;;;;;;;;;;5072168;28;20039;-67
2022/07/20 12:42:10;;;;;;;26.55;8.23;;;;;;;;;;5071875;28;20074;-67
2022/07/20 12:44:36;;;;;;;26.50;7.97;;;;;;;;;;5072283;28;20086;-67
2022/07/20 12:47:02;;;;;;;24.95;8.25;;;;;;;;;;5072290;28;20104;-67
2022/07/20 12:49:29;;;;;;;29.05;8.18;;;;;;;;;;5070797;28;20443;-67
2022/07/20 12:51:56;;;;;;;33.28;9.98;;;;;;;;;;5071879;28;20054;-67
2022/07/20 12:54:22;;;;;;;29.45;8.73;;;;;;;;;;5072197;28;20063;-67
2022/07/20 12:56:48;;;;;;;22.23;9.07;;;;;;;;;;5071902;28;20037;-67
2022/07/20 12:59:15;;;;;;;28.20;8.90;;;;;;;;;;5072186;28;20505;-67
2022/07/20 13:01:43;;;;;;;34.13;9.68;;;;;;;;;;5072006;28;20567;-67
2022/07/20 13:04:09;;;;;;;30.55;9.82;;;;;;;;;;5072321;28;20036;-67
2022/07/20 13:06:36;;;;;;;36.30;10.38;;;;;;;;;;5075985;28;20033;-67
2022/07/20 13:09:03;;;;;;;34.85;11.40;;;;;;;;;;5075919;28;20032;-67
2022/07/20 13:11:29;;;;;;;31.52;10.02;;;;;;;;;;5075338;28;20095;-67
2022/07/20 13:13:56;;;;;;;26.23;11.10;;;;;;;;;;5075811;28;20024;-67
2022/07/20 13:16:22;;;;;;;34.72;10.80;;;;;;;;;;5075721;28;20063;-67
2022/07/20 13:18:48;;;;;;;38.50;12.07;;;;;;;;;;5075820;28;20394;-67
2022/07/20 13:21:14;;;;;;;40.55;11.32;;;;;;;;;;5074366;28;20040;-67
2022/07/20 13:23:40;;;;;;;34.45;12.57;;;;;;;;;;5075624;28;20074;-67
2022/07/20 13:26:07;;;;;;;35.45;11.27;;;;;;;;;;5073788;28;20068;-67
2022/07/20 13:28:34;;;;;;;43.60;13.73;;;;;;;;;;5074154;28;20048;-67
2022/07/20 13:31:00;;;;;;;34.72;14.10;;;;;;;;;;5075208;28;20386;-67
2022/07/20 13:33:26;;;;;;;41.50;13.82;;;;;;;;;;5075289;28;20498;-68
2022/07/20 13:35:52;;;;;;;37.75;14.02;;;;;;;;;;5075777;28;20024;-68
2022/07/20 13:38:19;;;;;;;35.97;11.25;;;;;;;;;;5075937;28;20028;-68
2022/07/20 13:40:45;;;;;;;35.63;12.30;;;;;;;;;;5074690;28;20028;-68
2022/07/20 13:43:11;;;;;;;36.25;13.05;;;;;;;;;;5075492;28;20037;-68
2022/07/20 13:45:37;;;;;;;35.33;12.98;;;;;;;;;;5074849;28;20027;-68
2022/07/20 13:48:04;;;;;;;37.20;11.88;;;;;;;;;;5073894;28;20041;-68
2022/07/20 13:50:30;;;;;;;37.95;12.90;;;;;;;;;;5069243;28;20510;-68
2022/07/20 13:52:56;;;;;;;38.00;12.52;;;;;;;;;;5071998;28;20602;-68
2022/07/20 13:55:23;;;;;;;30.52;11.50;;;;;;;;;;5074265;28;20031;-68
2022/07/20 13:57:49;;;;;;;28.02;11.93;;;;;;;;;;5074537;28;20020;-68
2022/07/20 14:00:15;;;;;;;27.40;11.77;;;;;;;;;;5074477;28;20510;-68
2022/07/20 14:02:42;;;;;;;32.72;10.80;;;;;;;;;;5067773;28;20036;-68
2022/07/20 14:05:08;;;;;;;20.63;9.70;;;;;;;;;;5074900;28;20036;-68
2022/07/20 14:07:34;;;;;;;22.92;9.77;;;;;;;;;;5074806;28;20521;-68
2022/07/20 14:10:01;;;;;;;22.20;8.77;;;;;;;;;;5074541;28;20031;-68
2022/07/20 14:12:27;;;;;;;21.60;7.97;;;;;;;;;;5074498;28;20456;-68
2022/07/20 14:14:53;;;;;;;18.05;8.98;;;;;;;;;;5074322;28;20051;-68
2022/07/20 14:17:19;;;;;;;22.15;9.00;;;;;;;;;;5073569;28;20040;-68
2022/07/20 14:19:46;;;;;;;27.45;9.27;;;;;;;;;;5077242;28;20056;-68
2022/07/20 14:22:12;;;;;;;27.95;10.00;;;;;;;;;;5075132;28;20028;-68
2022/07/20 14:24:38;;;;;;;16.25;8.80;;;;;;;;;;5074582;28;20032;-68
2022/07/20 14:27:08;;;;;;;25.08;8.75;;;;;;;;;;5073974;28;20033;-68
2022/07/20 14:29:35;;;;;;;21.58;8.48;;;;;;;;;;5075010;28;20048;-68
2022/07/20 14:32:01;;;;;;;17.77;8.13;;;;;;;;;;5074808;28;20020;-68
2022/07/20 14:34:28;;;;;;;15.88;8.38;;;;;;;;;;5073987;28;20037;-68